Archival Weather

Salzburg

Salzburg, Austria (LOWS)

Report from: Thursday, September 21, 2023 7:50 PM CEST
Current time: Friday, July 19, 2024 3:59 AM CEST

Current weather – Weather history – Daily summaries
Weather forecast

Temperature19.0°C (66.2°F)
Dew point16.0°C (60.8°F)
Winds 4 kts (2.1 m/s, 4.6 mph) Vrb
Winds variableWinds variable from South-Southeast (150°) to Southwest (220°)
Clouds Sky clear
Altimeter29.59 in.Hg (1002 mB)
Relative humidity83 %
Density altitude1,101 ft. (335 m)
Remarks Ceiling and visibility OK
No significant changes expected in the next two hours
Flight conditions Visual Meteorological Conditions
Raw dataLOWS 211750Z 18004KT 150V220 CAVOK 19/16 Q1002 NOSIG
An error has occurred. This application may no longer respond until reloaded. Reload 🗙